Terminal Aerodrome Forecast
Issued by NWS

Home | Current Version | Previous Version | Graphics & Text | Print | Product List | Glossary On
Versions: 1 2 3 4 5 6 7 8 9 10 11 12 13 14 15 16 17 18 19 20 21 22 23 24 25
489
FTUS43 KBIS 270042 AAA
TAFMOT
TAF AMD
KMOT 270042Z 2701/2724 24008KT P6SM VCTS SCT027 OVC040CB
     FM270200 34006KT P6SM BKN120
     FM270400 33004KT P6SM BKN080
     FM271300 33004KT P6SM OVC025
     FM271900 01008KT P6SM BKN035=

USA.gov is the U.S. government's official web portal to all federal, state and local government web resources and services.